TNO1122 KMLB-KSAT
Flight info
| Callsign | TNO1122 |
|---|---|
| Flight time | 2h 41m |
| Altitude | 34000 |
| Route | FSHUN SRQ REMIS Q100 LEV CAAGE QERVO1 |
| Aircraft | A319/M-SDE3FGHIRWY/LB1 |
Departure
| Time | 2026-04-22 07:59 |
|---|---|
| Airport | Melbourne Orlando International Airport (KMLB) |
Arrival
| Time | 2026-04-22 10:40 |
|---|---|
| Airport | San Antonio International Airport (KSAT) |
| Time | Latitude | Longitude | Altitude | Speed | Heading |
|---|---|---|---|---|---|
| 2026-04-22 07:48 | 28.09644 | -80.64673 | 45 ft | 0 kts | 172° |
| 2026-04-22 07:51 | 28.09654 | -80.64675 | 45 ft | 2 kts | 175° |
| 2026-04-22 07:51 | 28.09672 | -80.64675 | 45 ft | 3 kts | 186° |
| 2026-04-22 07:51 | 28.09692 | -80.64670 | 45 ft | 3 kts | 197° |
| 2026-04-22 07:51 | 28.09710 | -80.64661 | 45 ft | 1 kts | 208° |
| 2026-04-22 07:52 | 28.09711 | -80.64661 | 45 ft | 0 kts | 208° |
| 2026-04-22 07:52 | 28.09707 | -80.64666 | 45 ft | 6 kts | 232° |
| 2026-04-22 07:52 | 28.09703 | -80.64712 | 45 ft | 8 kts | 269° |
| 2026-04-22 07:53 | 28.09746 | -80.64790 | 45 ft | 15 kts | 350° |
| 2026-04-22 07:53 | 28.09831 | -80.64801 | 45 ft | 9 kts | 356° |
| 2026-04-22 07:53 | 28.09887 | -80.64806 | 45 ft | 14 kts | 355° |
| 2026-04-22 07:53 | 28.09993 | -80.64815 | 45 ft | 12 kts | 356° |
| 2026-04-22 07:54 | 28.10060 | -80.64787 | 45 ft | 14 kts | 77° |
| 2026-04-22 07:54 | 28.10071 | -80.64675 | 45 ft | 10 kts | 87° |
| 2026-04-22 07:54 | 28.10074 | -80.64605 | 45 ft | 12 kts | 87° |
| 2026-04-22 07:54 | 28.10079 | -80.64510 | 45 ft | 12 kts | 87° |
| 2026-04-22 07:55 | 28.10083 | -80.64412 | 45 ft | 13 kts | 86° |
| 2026-04-22 07:55 | 28.10089 | -80.64311 | 45 ft | 13 kts | 86° |
| 2026-04-22 07:55 | 28.10095 | -80.64194 | 45 ft | 16 kts | 86° |
| 2026-04-22 07:55 | 28.10101 | -80.64057 | 45 ft | 19 kts | 87° |
| 2026-04-22 07:56 | 28.10109 | -80.63905 | 45 ft | 19 kts | 87° |
| 2026-04-22 07:56 | 28.10114 | -80.63798 | 45 ft | 11 kts | 86° |
| 2026-04-22 07:56 | 28.10121 | -80.63687 | 45 ft | 18 kts | 86° |
| 2026-04-22 07:56 | 28.10127 | -80.63583 | 45 ft | 9 kts | 86° |
| 2026-04-22 07:57 | 28.10135 | -80.63440 | 45 ft | 21 kts | 86° |
| 2026-04-22 07:57 | 28.10138 | -80.63315 | 45 ft | 10 kts | 103° |
| 2026-04-22 07:57 | 28.10106 | -80.63248 | 45 ft | 11 kts | 104° |
| 2026-04-22 07:57 | 28.10138 | -80.63178 | 45 ft | 10 kts | 44° |
| 2026-04-22 07:58 | 28.10196 | -80.63139 | 45 ft | 11 kts | 7° |
| 2026-04-22 07:58 | 28.10264 | -80.63154 | 45 ft | 11 kts | 319° |
| 2026-04-22 07:58 | 28.10269 | -80.63183 | 45 ft | 6 kts | 267° |
| 2026-04-22 07:58 | 28.10253 | -80.63512 | 45 ft | 92 kts | 266° |
| 2026-04-22 07:59 | 28.10197 | -80.64642 | 50 ft | 196 kts | 266° |
| 2026-04-22 07:59 | 28.10114 | -80.66384 | 777 ft | 242 kts | 266° |
| 2026-04-22 07:59 | 28.09936 | -80.68256 | 1208 ft | 233 kts | 258° |
| 2026-04-22 07:59 | 28.09494 | -80.70044 | 1709 ft | 240 kts | 250° |
| 2026-04-22 08:00 | 28.08941 | -80.71839 | 2165 ft | 247 kts | 249° |
| 2026-04-22 08:00 | 28.08344 | -80.73699 | 2620 ft | 254 kts | 249° |
| 2026-04-22 08:00 | 28.07741 | -80.75620 | 3070 ft | 260 kts | 250° |
| 2026-04-22 08:00 | 28.07160 | -80.77547 | 3521 ft | 262 kts | 251° |
| 2026-04-22 08:01 | 28.06586 | -80.79533 | 3976 ft | 265 kts | 251° |
| 2026-04-22 08:01 | 28.06035 | -80.81505 | 4425 ft | 266 kts | 252° |
| 2026-04-22 08:01 | 28.05486 | -80.83522 | 4876 ft | 268 kts | 253° |
| 2026-04-22 08:01 | 28.04947 | -80.85546 | 5331 ft | 269 kts | 253° |
| 2026-04-22 08:02 | 28.04414 | -80.87573 | 5780 ft | 270 kts | 253° |
| 2026-04-22 08:02 | 28.03880 | -80.89621 | 6235 ft | 271 kts | 254° |
| 2026-04-22 08:02 | 28.03354 | -80.91653 | 6679 ft | 272 kts | 254° |
| 2026-04-22 08:02 | 28.02820 | -80.93722 | 7138 ft | 273 kts | 254° |
| 2026-04-22 08:03 | 28.02289 | -80.95787 | 7581 ft | 275 kts | 255° |
| 2026-04-22 08:03 | 28.01753 | -80.97873 | 8033 ft | 276 kts | 255° |
| 2026-04-22 08:03 | 28.01212 | -80.99977 | 8487 ft | 278 kts | 255° |
| 2026-04-22 08:03 | 28.00674 | -81.02071 | 8937 ft | 279 kts | 255° |
| 2026-04-22 08:04 | 28.00142 | -81.04143 | 9382 ft | 281 kts | 255° |
| 2026-04-22 08:04 | 27.99589 | -81.06298 | 9839 ft | 282 kts | 255° |
| 2026-04-22 08:04 | 27.99040 | -81.08435 | 10292 ft | 283 kts | 255° |
| 2026-04-22 08:04 | 27.98488 | -81.10582 | 10745 ft | 284 kts | 255° |
| 2026-04-22 08:05 | 27.97933 | -81.12737 | 11198 ft | 285 kts | 255° |
| 2026-04-22 08:05 | 27.97381 | -81.14875 | 11646 ft | 285 kts | 255° |
| 2026-04-22 08:05 | 27.96821 | -81.17045 | 12100 ft | 286 kts | 255° |
| 2026-04-22 08:05 | 27.96267 | -81.19188 | 12547 ft | 287 kts | 255° |
| 2026-04-22 08:06 | 27.95705 | -81.21365 | 13001 ft | 287 kts | 255° |
| 2026-04-22 08:06 | 27.95141 | -81.23543 | 13452 ft | 288 kts | 255° |
| 2026-04-22 08:06 | 27.94576 | -81.25722 | 13903 ft | 289 kts | 255° |
| 2026-04-22 08:06 | 27.94016 | -81.27883 | 14350 ft | 290 kts | 255° |
| 2026-04-22 08:07 | 27.93445 | -81.30083 | 14802 ft | 291 kts | 255° |
| 2026-04-22 08:07 | 27.92871 | -81.32295 | 15256 ft | 292 kts | 255° |
| 2026-04-22 08:07 | 27.92296 | -81.34507 | 15708 ft | 293 kts | 255° |
| 2026-04-22 08:07 | 27.91728 | -81.36693 | 16154 ft | 294 kts | 255° |
| 2026-04-22 08:08 | 27.91149 | -81.38918 | 16605 ft | 295 kts | 255° |
| 2026-04-22 08:08 | 27.90567 | -81.41156 | 17057 ft | 296 kts | 255° |
| 2026-04-22 08:08 | 27.89983 | -81.43400 | 17510 ft | 298 kts | 255° |
| 2026-04-22 08:08 | 27.89394 | -81.45661 | 17963 ft | 299 kts | 255° |
| 2026-04-22 08:09 | 27.88805 | -81.47919 | 18415 ft | 300 kts | 255° |
| 2026-04-22 08:09 | 27.88213 | -81.50185 | 18867 ft | 301 kts | 256° |
| 2026-04-22 08:09 | 27.87625 | -81.52435 | 19314 ft | 302 kts | 256° |
| 2026-04-22 08:09 | 27.87027 | -81.54723 | 19767 ft | 303 kts | 256° |
| 2026-04-22 08:10 | 27.86427 | -81.57015 | 20220 ft | 303 kts | 256° |
| 2026-04-22 08:10 | 27.85798 | -81.59272 | 20668 ft | 305 kts | 253° |
| 2026-04-22 08:10 | 27.85029 | -81.61523 | 21124 ft | 307 kts | 250° |
| 2026-04-22 08:10 | 27.84171 | -81.63741 | 21580 ft | 308 kts | 249° |
| 2026-04-22 08:11 | 27.83266 | -81.65915 | 22029 ft | 309 kts | 248° |
| 2026-04-22 08:11 | 27.82307 | -81.68117 | 22484 ft | 311 kts | 247° |
| 2026-04-22 08:11 | 27.81326 | -81.70305 | 22936 ft | 312 kts | 246° |
| 2026-04-22 08:11 | 27.80343 | -81.72461 | 23382 ft | 313 kts | 246° |
| 2026-04-22 08:12 | 27.79333 | -81.74652 | 23835 ft | 314 kts | 246° |
| 2026-04-22 08:12 | 27.78317 | -81.76840 | 24286 ft | 315 kts | 246° |
| 2026-04-22 08:12 | 27.77295 | -81.79034 | 24737 ft | 316 kts | 246° |
| 2026-04-22 08:12 | 27.76266 | -81.81235 | 25187 ft | 317 kts | 246° |
| 2026-04-22 08:13 | 27.75233 | -81.83440 | 25638 ft | 319 kts | 246° |
| 2026-04-22 08:13 | 27.74204 | -81.85635 | 26083 ft | 321 kts | 246° |
| 2026-04-22 08:13 | 27.73154 | -81.87873 | 26519 ft | 323 kts | 246° |
| 2026-04-22 08:13 | 27.72084 | -81.90155 | 26918 ft | 333 kts | 246° |
| 2026-04-22 08:14 | 27.70991 | -81.92491 | 27310 ft | 347 kts | 246° |
| 2026-04-22 08:14 | 27.69835 | -81.94966 | 27708 ft | 363 kts | 246° |
| 2026-04-22 08:14 | 27.68637 | -81.97529 | 28100 ft | 378 kts | 246° |
| 2026-04-22 08:14 | 27.67386 | -82.00198 | 28488 ft | 388 kts | 246° |
| 2026-04-22 08:15 | 27.66117 | -82.02896 | 28866 ft | 393 kts | 246° |
| 2026-04-22 08:15 | 27.64825 | -82.05629 | 29239 ft | 392 kts | 246° |
| 2026-04-22 08:15 | 27.63550 | -82.08321 | 29611 ft | 393 kts | 246° |
| 2026-04-22 08:15 | 27.62254 | -82.11053 | 29988 ft | 395 kts | 246° |
| 2026-04-22 08:16 | 27.60950 | -82.13800 | 30364 ft | 397 kts | 246° |
| 2026-04-22 08:16 | 27.59639 | -82.16563 | 30741 ft | 400 kts | 246° |
| 2026-04-22 08:16 | 27.58338 | -82.19304 | 31112 ft | 402 kts | 246° |
| 2026-04-22 08:16 | 27.57006 | -82.22111 | 31490 ft | 404 kts | 246° |
| 2026-04-22 08:17 | 27.55689 | -82.24885 | 31862 ft | 406 kts | 246° |
| 2026-04-22 08:17 | 27.54348 | -82.27709 | 32240 ft | 408 kts | 246° |
| 2026-04-22 08:17 | 27.53000 | -82.30547 | 32616 ft | 411 kts | 247° |
| 2026-04-22 08:17 | 27.51655 | -82.33379 | 32990 ft | 413 kts | 247° |
| 2026-04-22 08:18 | 27.50307 | -82.36215 | 33363 ft | 415 kts | 247° |
| 2026-04-22 08:18 | 27.48934 | -82.39102 | 33740 ft | 418 kts | 247° |
| 2026-04-22 08:18 | 27.47550 | -82.42010 | 34072 ft | 421 kts | 247° |
| 2026-04-22 08:18 | 27.46166 | -82.44922 | 34206 ft | 429 kts | 247° |
| 2026-04-22 08:19 | 27.43320 | -82.50904 | 34269 ft | 436 kts | 246° |
| 2026-04-22 08:19 | 27.41333 | -82.57180 | 34273 ft | 419 kts | 266° |
| 2026-04-22 08:20 | 27.41538 | -82.63708 | 34278 ft | 416 kts | 279° |
| 2026-04-22 08:20 | 27.42575 | -82.70069 | 34270 ft | 413 kts | 283° |
| 2026-04-22 08:21 | 27.43857 | -82.76345 | 34267 ft | 412 kts | 284° |
| 2026-04-22 08:21 | 27.45188 | -82.82644 | 34266 ft | 411 kts | 284° |
| 2026-04-22 08:22 | 27.46484 | -82.88902 | 34266 ft | 411 kts | 284° |
| 2026-04-22 08:22 | 27.47747 | -82.95188 | 34265 ft | 411 kts | 284° |
| 2026-04-22 08:23 | 27.48972 | -83.01463 | 34265 ft | 411 kts | 283° |
| 2026-04-22 08:23 | 27.50169 | -83.07732 | 34265 ft | 410 kts | 283° |
| 2026-04-22 08:24 | 27.51352 | -83.14027 | 34264 ft | 410 kts | 283° |
| 2026-04-22 08:24 | 27.52521 | -83.20326 | 34264 ft | 410 kts | 283° |
| 2026-04-22 08:25 | 27.53676 | -83.26598 | 34264 ft | 410 kts | 283° |
| 2026-04-22 08:25 | 27.54829 | -83.32902 | 34268 ft | 410 kts | 283° |
| 2026-04-22 08:26 | 27.55977 | -83.39210 | 34268 ft | 410 kts | 283° |
| 2026-04-22 08:26 | 27.57114 | -83.45485 | 34268 ft | 410 kts | 283° |
| 2026-04-22 08:27 | 27.58249 | -83.51773 | 34268 ft | 410 kts | 283° |
| 2026-04-22 08:27 | 27.59386 | -83.58083 | 34268 ft | 410 kts | 282° |
| 2026-04-22 08:28 | 27.60518 | -83.64393 | 34268 ft | 410 kts | 282° |
| 2026-04-22 08:28 | 27.61644 | -83.70688 | 34268 ft | 410 kts | 282° |
| 2026-04-22 08:29 | 27.62770 | -83.77000 | 34268 ft | 410 kts | 282° |
| 2026-04-22 08:29 | 27.63889 | -83.83292 | 34267 ft | 410 kts | 282° |
| 2026-04-22 08:30 | 27.65012 | -83.89619 | 34267 ft | 411 kts | 282° |
| 2026-04-22 08:30 | 27.66126 | -83.95916 | 34267 ft | 411 kts | 282° |
| 2026-04-22 08:31 | 27.67245 | -84.02261 | 34267 ft | 411 kts | 282° |
| 2026-04-22 08:32 | 27.68907 | -84.11718 | 34266 ft | 410 kts | 282° |
| 2026-04-22 08:32 | 27.70014 | -84.18036 | 34266 ft | 410 kts | 282° |
| 2026-04-22 08:33 | 27.71117 | -84.24347 | 34266 ft | 410 kts | 282° |
| 2026-04-22 08:33 | 27.72218 | -84.30665 | 34266 ft | 410 kts | 282° |
| 2026-04-22 08:34 | 27.73313 | -84.36968 | 34266 ft | 410 kts | 282° |
| 2026-04-22 08:34 | 27.74407 | -84.43288 | 34265 ft | 410 kts | 282° |
| 2026-04-22 08:35 | 27.75324 | -84.48591 | 34266 ft | 410 kts | 282° |
| 2026-04-22 08:35 | 27.76408 | -84.54881 | 34265 ft | 410 kts | 282° |
| 2026-04-22 08:36 | 27.77496 | -84.61211 | 34265 ft | 409 kts | 282° |
| 2026-04-22 08:36 | 27.78574 | -84.67503 | 34263 ft | 409 kts | 282° |
| 2026-04-22 08:37 | 27.79648 | -84.73794 | 34262 ft | 409 kts | 282° |
| 2026-04-22 08:37 | 27.80726 | -84.80119 | 34261 ft | 409 kts | 282° |
| 2026-04-22 08:38 | 27.81791 | -84.86391 | 34261 ft | 408 kts | 282° |
| 2026-04-22 08:38 | 27.82861 | -84.92706 | 34261 ft | 408 kts | 282° |
| 2026-04-22 08:39 | 27.83921 | -84.98987 | 34261 ft | 408 kts | 282° |
| 2026-04-22 08:39 | 27.84979 | -85.05275 | 34257 ft | 408 kts | 282° |
| 2026-04-22 08:40 | 27.86039 | -85.11586 | 34252 ft | 407 kts | 282° |
| 2026-04-22 08:40 | 27.87089 | -85.17859 | 34251 ft | 407 kts | 282° |
| 2026-04-22 08:41 | 27.88248 | -85.24136 | 34251 ft | 407 kts | 285° |
| 2026-04-22 08:41 | 27.89819 | -85.30285 | 34253 ft | 407 kts | 288° |
| 2026-04-22 08:42 | 27.91567 | -85.36327 | 34251 ft | 406 kts | 289° |
| 2026-04-22 08:42 | 27.93396 | -85.42403 | 34250 ft | 406 kts | 289° |
| 2026-04-22 08:43 | 27.95227 | -85.48422 | 34251 ft | 406 kts | 289° |
| 2026-04-22 08:43 | 27.97065 | -85.54465 | 34252 ft | 406 kts | 289° |
| 2026-04-22 08:44 | 27.98902 | -85.60528 | 34254 ft | 406 kts | 289° |
| 2026-04-22 08:44 | 28.00729 | -85.66577 | 34254 ft | 406 kts | 289° |
| 2026-04-22 08:45 | 28.02554 | -85.72643 | 34255 ft | 406 kts | 289° |
| 2026-04-22 08:45 | 28.04371 | -85.78701 | 34254 ft | 406 kts | 289° |
| 2026-04-22 08:46 | 28.06173 | -85.84724 | 34246 ft | 406 kts | 289° |
| 2026-04-22 08:46 | 28.07986 | -85.90800 | 34243 ft | 406 kts | 289° |
| 2026-04-22 08:47 | 28.09797 | -85.96880 | 34243 ft | 406 kts | 289° |
| 2026-04-22 08:47 | 28.11588 | -86.02903 | 34242 ft | 406 kts | 289° |
| 2026-04-22 08:48 | 28.13389 | -86.08972 | 34241 ft | 406 kts | 289° |
| 2026-04-22 08:48 | 28.15186 | -86.15039 | 34240 ft | 406 kts | 289° |
| 2026-04-22 08:49 | 28.16984 | -86.21122 | 34239 ft | 406 kts | 289° |
| 2026-04-22 08:49 | 28.18777 | -86.27199 | 34238 ft | 406 kts | 289° |
| 2026-04-22 08:50 | 28.20566 | -86.33274 | 34236 ft | 406 kts | 288° |
| 2026-04-22 08:50 | 28.22342 | -86.39315 | 34227 ft | 406 kts | 288° |
| 2026-04-22 08:51 | 28.24124 | -86.45391 | 34224 ft | 406 kts | 288° |
| 2026-04-22 08:51 | 28.25907 | -86.51480 | 34223 ft | 406 kts | 288° |
| 2026-04-22 08:52 | 28.27686 | -86.57566 | 34223 ft | 407 kts | 288° |
| 2026-04-22 08:52 | 28.29465 | -86.63667 | 34223 ft | 407 kts | 288° |
| 2026-04-22 08:53 | 28.31231 | -86.69727 | 34222 ft | 407 kts | 288° |
| 2026-04-22 08:53 | 28.33018 | -86.75827 | 34222 ft | 407 kts | 288° |
| 2026-04-22 08:54 | 28.34805 | -86.81922 | 34219 ft | 407 kts | 288° |
| 2026-04-22 08:54 | 28.36591 | -86.88028 | 34218 ft | 407 kts | 288° |
| 2026-04-22 08:55 | 28.38374 | -86.94133 | 34218 ft | 407 kts | 288° |
| 2026-04-22 08:55 | 28.40153 | -87.00237 | 34218 ft | 407 kts | 288° |
| 2026-04-22 08:56 | 28.41926 | -87.06335 | 34217 ft | 406 kts | 288° |
| 2026-04-22 08:56 | 28.43688 | -87.12405 | 34217 ft | 406 kts | 288° |
| 2026-04-22 08:57 | 28.45456 | -87.18511 | 34217 ft | 406 kts | 288° |
| 2026-04-22 08:57 | 28.47210 | -87.24576 | 34218 ft | 406 kts | 288° |
| 2026-04-22 08:58 | 28.48973 | -87.30689 | 34218 ft | 406 kts | 288° |
| 2026-04-22 08:58 | 28.50722 | -87.36764 | 34217 ft | 406 kts | 288° |
| 2026-04-22 08:59 | 28.52476 | -87.42867 | 34215 ft | 406 kts | 288° |
| 2026-04-22 08:59 | 28.54230 | -87.48985 | 34211 ft | 406 kts | 288° |
| 2026-04-22 09:00 | 28.55980 | -87.55097 | 34210 ft | 405 kts | 288° |
| 2026-04-22 09:00 | 28.57713 | -87.61164 | 34210 ft | 405 kts | 288° |
| 2026-04-22 09:01 | 28.59417 | -87.67135 | 34209 ft | 405 kts | 288° |
| 2026-04-22 09:01 | 28.61145 | -87.73205 | 34209 ft | 405 kts | 288° |
| 2026-04-22 09:02 | 28.62878 | -87.79303 | 34208 ft | 405 kts | 287° |
| 2026-04-22 09:02 | 28.64610 | -87.85415 | 34207 ft | 405 kts | 287° |
| 2026-04-22 09:03 | 28.66337 | -87.91520 | 34206 ft | 405 kts | 287° |
| 2026-04-22 09:03 | 28.68052 | -87.97593 | 34205 ft | 405 kts | 287° |
| 2026-04-22 09:04 | 28.69777 | -88.03720 | 34204 ft | 405 kts | 287° |
| 2026-04-22 09:04 | 28.71487 | -88.09794 | 34203 ft | 404 kts | 287° |
| 2026-04-22 09:05 | 28.73204 | -88.15900 | 34202 ft | 404 kts | 287° |
| 2026-04-22 09:05 | 28.74919 | -88.22011 | 34202 ft | 404 kts | 287° |
| 2026-04-22 09:06 | 28.76629 | -88.28117 | 34202 ft | 404 kts | 287° |
| 2026-04-22 09:06 | 28.78337 | -88.34226 | 34202 ft | 404 kts | 287° |
| 2026-04-22 09:07 | 28.80032 | -88.40310 | 34202 ft | 404 kts | 287° |
| 2026-04-22 09:07 | 28.81732 | -88.46422 | 34202 ft | 404 kts | 287° |
| 2026-04-22 09:08 | 28.83421 | -88.52510 | 34202 ft | 404 kts | 287° |
| 2026-04-22 09:08 | 28.85109 | -88.58607 | 34201 ft | 404 kts | 287° |
| 2026-04-22 09:09 | 28.86800 | -88.64731 | 34201 ft | 404 kts | 287° |
| 2026-04-22 09:09 | 28.88371 | -88.70896 | 34201 ft | 404 kts | 285° |
| 2026-04-22 09:10 | 28.89777 | -88.77064 | 34201 ft | 404 kts | 284° |
| 2026-04-22 09:10 | 28.91132 | -88.83301 | 34200 ft | 404 kts | 284° |
| 2026-04-22 09:11 | 28.92458 | -88.89520 | 34200 ft | 404 kts | 283° |
| 2026-04-22 09:11 | 28.93782 | -88.95773 | 34200 ft | 404 kts | 283° |
| 2026-04-22 09:12 | 28.95096 | -89.01998 | 34199 ft | 404 kts | 283° |
| 2026-04-22 09:12 | 28.96411 | -89.08241 | 34199 ft | 404 kts | 283° |
| 2026-04-22 09:13 | 28.97724 | -89.14458 | 34199 ft | 404 kts | 282° |
| 2026-04-22 09:13 | 28.99044 | -89.20703 | 34198 ft | 403 kts | 282° |
| 2026-04-22 09:14 | 29.00344 | -89.26907 | 34195 ft | 403 kts | 282° |
| 2026-04-22 09:14 | 29.01644 | -89.33140 | 34195 ft | 403 kts | 282° |
| 2026-04-22 09:15 | 29.02932 | -89.39332 | 34195 ft | 403 kts | 282° |
| 2026-04-22 09:15 | 29.04231 | -89.45585 | 34195 ft | 403 kts | 282° |
| 2026-04-22 09:16 | 29.05518 | -89.51788 | 34195 ft | 403 kts | 282° |
| 2026-04-22 09:16 | 29.06814 | -89.58051 | 34195 ft | 403 kts | 282° |
| 2026-04-22 09:17 | 29.08097 | -89.64260 | 34196 ft | 403 kts | 281° |
| 2026-04-22 09:17 | 29.09387 | -89.70518 | 34196 ft | 403 kts | 281° |
| 2026-04-22 09:18 | 29.10673 | -89.76774 | 34196 ft | 403 kts | 281° |
| 2026-04-22 09:18 | 29.11947 | -89.82985 | 34196 ft | 403 kts | 281° |
| 2026-04-22 09:19 | 29.13222 | -89.89223 | 34196 ft | 403 kts | 281° |
| 2026-04-22 09:19 | 29.14504 | -89.95505 | 34196 ft | 403 kts | 281° |
| 2026-04-22 09:20 | 29.15769 | -90.01723 | 34197 ft | 404 kts | 281° |
| 2026-04-22 09:20 | 29.17023 | -90.07998 | 34197 ft | 403 kts | 281° |
| 2026-04-22 09:21 | 29.18172 | -90.14293 | 34197 ft | 403 kts | 280° |
| 2026-04-22 09:21 | 29.19259 | -90.20552 | 34197 ft | 403 kts | 279° |
| 2026-04-22 09:22 | 29.20330 | -90.26857 | 34197 ft | 403 kts | 279° |
| 2026-04-22 09:22 | 29.21394 | -90.33171 | 34212 ft | 403 kts | 279° |
| 2026-04-22 09:23 | 29.22273 | -90.38416 | 34215 ft | 403 kts | 279° |
| 2026-04-22 09:23 | 29.23329 | -90.44729 | 34219 ft | 403 kts | 279° |
| 2026-04-22 09:24 | 29.24383 | -90.51050 | 34225 ft | 403 kts | 279° |
| 2026-04-22 09:24 | 29.25433 | -90.57365 | 34231 ft | 403 kts | 279° |
| 2026-04-22 09:25 | 29.26482 | -90.63689 | 34238 ft | 403 kts | 279° |
| 2026-04-22 09:25 | 29.27520 | -90.69966 | 34250 ft | 403 kts | 279° |
| 2026-04-22 09:26 | 29.28561 | -90.76280 | 34253 ft | 404 kts | 279° |
| 2026-04-22 09:26 | 29.29601 | -90.82605 | 34251 ft | 404 kts | 279° |
| 2026-04-22 09:27 | 29.30638 | -90.88933 | 34247 ft | 404 kts | 279° |
| 2026-04-22 09:27 | 29.31672 | -90.95258 | 34241 ft | 404 kts | 279° |
| 2026-04-22 09:28 | 29.32699 | -91.01561 | 34235 ft | 404 kts | 279° |
| 2026-04-22 09:28 | 29.33729 | -91.07905 | 34228 ft | 404 kts | 279° |
| 2026-04-22 09:29 | 29.34757 | -91.14254 | 34221 ft | 405 kts | 279° |
| 2026-04-22 09:29 | 29.35782 | -91.20602 | 34215 ft | 405 kts | 279° |
| 2026-04-22 09:30 | 29.36799 | -91.26919 | 34209 ft | 405 kts | 279° |
| 2026-04-22 09:30 | 29.37818 | -91.33273 | 34201 ft | 405 kts | 279° |
| 2026-04-22 09:31 | 29.38835 | -91.39635 | 34185 ft | 405 kts | 279° |
| 2026-04-22 09:31 | 29.39849 | -91.45998 | 34184 ft | 406 kts | 279° |
| 2026-04-22 09:32 | 29.40862 | -91.52370 | 34184 ft | 406 kts | 279° |
| 2026-04-22 09:32 | 29.41872 | -91.58746 | 34183 ft | 406 kts | 279° |
| 2026-04-22 09:33 | 29.42879 | -91.65129 | 34183 ft | 406 kts | 279° |
| 2026-04-22 09:33 | 29.43878 | -91.71482 | 34182 ft | 407 kts | 279° |
| 2026-04-22 09:34 | 29.44881 | -91.77874 | 34182 ft | 407 kts | 279° |
| 2026-04-22 09:34 | 29.45882 | -91.84276 | 34181 ft | 407 kts | 279° |
| 2026-04-22 09:35 | 29.47373 | -91.93850 | 34176 ft | 407 kts | 279° |
| 2026-04-22 09:35 | 29.48364 | -92.00236 | 34176 ft | 407 kts | 279° |
| 2026-04-22 09:36 | 29.49350 | -92.06616 | 34179 ft | 407 kts | 279° |
| 2026-04-22 09:36 | 29.50342 | -92.13053 | 34177 ft | 408 kts | 279° |
| 2026-04-22 09:37 | 29.51323 | -92.19440 | 34175 ft | 408 kts | 279° |
| 2026-04-22 09:37 | 29.52306 | -92.25862 | 34175 ft | 408 kts | 278° |
| 2026-04-22 09:38 | 29.53281 | -92.32255 | 34175 ft | 408 kts | 278° |
| 2026-04-22 09:38 | 29.54258 | -92.38683 | 34175 ft | 408 kts | 278° |
| 2026-04-22 09:39 | 29.55232 | -92.45113 | 34172 ft | 408 kts | 278° |
| 2026-04-22 09:39 | 29.56204 | -92.51544 | 34172 ft | 408 kts | 278° |
| 2026-04-22 09:40 | 29.57167 | -92.57941 | 34171 ft | 408 kts | 278° |
| 2026-04-22 09:40 | 29.58132 | -92.64377 | 34171 ft | 408 kts | 278° |
| 2026-04-22 09:41 | 29.59088 | -92.70775 | 34170 ft | 408 kts | 278° |
| 2026-04-22 09:41 | 29.60049 | -92.77223 | 34169 ft | 408 kts | 278° |
| 2026-04-22 09:42 | 29.61001 | -92.83638 | 34169 ft | 409 kts | 278° |
| 2026-04-22 09:42 | 29.61952 | -92.90065 | 34169 ft | 409 kts | 278° |
| 2026-04-22 09:43 | 29.62905 | -92.96527 | 34169 ft | 409 kts | 278° |
| 2026-04-22 09:43 | 29.63854 | -93.02988 | 34167 ft | 409 kts | 278° |
| 2026-04-22 09:44 | 29.64800 | -93.09451 | 34169 ft | 410 kts | 278° |
| 2026-04-22 09:44 | 29.65740 | -93.15893 | 34169 ft | 410 kts | 278° |
| 2026-04-22 09:45 | 29.66682 | -93.22375 | 34170 ft | 410 kts | 278° |
| 2026-04-22 09:45 | 29.67616 | -93.28821 | 34171 ft | 411 kts | 278° |
| 2026-04-22 09:46 | 29.68553 | -93.35312 | 34171 ft | 411 kts | 278° |
| 2026-04-22 09:46 | 29.69482 | -93.41767 | 34172 ft | 411 kts | 278° |
| 2026-04-22 09:47 | 29.70413 | -93.48263 | 34172 ft | 412 kts | 278° |
| 2026-04-22 09:47 | 29.71342 | -93.54771 | 34171 ft | 412 kts | 278° |
| 2026-04-22 09:48 | 29.72269 | -93.61286 | 34170 ft | 413 kts | 278° |
| 2026-04-22 09:48 | 29.73189 | -93.67778 | 34169 ft | 413 kts | 278° |
| 2026-04-22 09:49 | 29.74110 | -93.74298 | 34169 ft | 413 kts | 278° |
| 2026-04-22 09:49 | 29.75030 | -93.80831 | 34161 ft | 414 kts | 278° |
| 2026-04-22 09:50 | 29.75947 | -93.87367 | 34150 ft | 414 kts | 278° |
| 2026-04-22 09:50 | 29.76861 | -93.93907 | 34147 ft | 414 kts | 278° |
| 2026-04-22 09:51 | 29.77772 | -94.00453 | 34146 ft | 414 kts | 278° |
| 2026-04-22 09:51 | 29.78681 | -94.07003 | 34142 ft | 414 kts | 278° |
| 2026-04-22 09:52 | 29.79581 | -94.13517 | 34141 ft | 414 kts | 278° |
| 2026-04-22 09:52 | 29.80483 | -94.20073 | 34142 ft | 415 kts | 278° |
| 2026-04-22 09:53 | 29.81382 | -94.26627 | 34141 ft | 415 kts | 278° |
| 2026-04-22 09:53 | 29.82280 | -94.33199 | 34146 ft | 414 kts | 278° |
| 2026-04-22 09:54 | 29.83169 | -94.39733 | 34145 ft | 414 kts | 278° |
| 2026-04-22 09:54 | 29.84058 | -94.46289 | 34144 ft | 414 kts | 278° |
| 2026-04-22 09:55 | 29.84944 | -94.52851 | 34143 ft | 414 kts | 278° |
| 2026-04-22 09:55 | 29.85822 | -94.59375 | 34148 ft | 413 kts | 278° |
| 2026-04-22 09:56 | 29.86701 | -94.65933 | 34150 ft | 414 kts | 278° |
| 2026-04-22 09:56 | 29.87577 | -94.72496 | 34151 ft | 414 kts | 278° |
| 2026-04-22 09:57 | 29.88443 | -94.79013 | 34151 ft | 413 kts | 278° |
| 2026-04-22 09:57 | 29.89316 | -94.85598 | 34151 ft | 413 kts | 278° |
| 2026-04-22 09:58 | 29.90177 | -94.92132 | 34148 ft | 413 kts | 278° |
| 2026-04-22 09:58 | 29.91039 | -94.98688 | 34146 ft | 413 kts | 278° |
| 2026-04-22 09:59 | 29.91894 | -95.05222 | 34145 ft | 413 kts | 278° |
| 2026-04-22 09:59 | 29.92749 | -95.11786 | 34142 ft | 413 kts | 278° |
| 2026-04-22 10:00 | 29.93596 | -95.18314 | 34130 ft | 413 kts | 277° |
| 2026-04-22 10:00 | 29.94444 | -95.24881 | 34130 ft | 413 kts | 277° |
| 2026-04-22 10:01 | 29.95217 | -95.31458 | 34127 ft | 413 kts | 274° |
| 2026-04-22 10:01 | 29.94899 | -95.38038 | 34132 ft | 415 kts | 263° |
| 2026-04-22 10:02 | 29.93835 | -95.44587 | 34129 ft | 415 kts | 259° |
| 2026-04-22 10:02 | 29.92493 | -95.51074 | 34125 ft | 415 kts | 257° |
| 2026-04-22 10:03 | 29.91074 | -95.57511 | 34123 ft | 416 kts | 257° |
| 2026-04-22 10:03 | 29.89635 | -95.63987 | 34121 ft | 416 kts | 257° |
| 2026-04-22 10:04 | 29.88217 | -95.70424 | 34128 ft | 416 kts | 257° |
| 2026-04-22 10:04 | 29.86814 | -95.76864 | 34130 ft | 416 kts | 257° |
| 2026-04-22 10:05 | 29.85412 | -95.83354 | 34135 ft | 416 kts | 257° |
| 2026-04-22 10:05 | 29.84026 | -95.89800 | 34138 ft | 416 kts | 257° |
| 2026-04-22 10:06 | 29.82636 | -95.96278 | 34139 ft | 416 kts | 257° |
| 2026-04-22 10:06 | 29.81243 | -96.02766 | 34137 ft | 417 kts | 257° |
| 2026-04-22 10:07 | 29.79855 | -96.09221 | 34135 ft | 417 kts | 257° |
| 2026-04-22 10:07 | 29.78581 | -96.15698 | 34129 ft | 416 kts | 262° |
| 2026-04-22 10:08 | 29.78239 | -96.22329 | 33924 ft | 409 kts | 270° |
| 2026-04-22 10:08 | 29.78322 | -96.25565 | 33587 ft | 398 kts | 272° |
| 2026-04-22 10:08 | 29.78499 | -96.28720 | 33227 ft | 389 kts | 274° |
| 2026-04-22 10:09 | 29.78729 | -96.31799 | 32861 ft | 383 kts | 275° |
| 2026-04-22 10:09 | 29.78987 | -96.34838 | 32494 ft | 378 kts | 275° |
| 2026-04-22 10:09 | 29.79250 | -96.37793 | 32132 ft | 374 kts | 275° |
| 2026-04-22 10:09 | 29.79517 | -96.40772 | 31765 ft | 371 kts | 275° |
| 2026-04-22 10:10 | 29.79775 | -96.43716 | 31400 ft | 368 kts | 275° |
| 2026-04-22 10:10 | 29.79940 | -96.45653 | 31158 ft | 367 kts | 275° |
| 2026-04-22 10:10 | 29.80258 | -96.49528 | 30673 ft | 364 kts | 275° |
| 2026-04-22 10:10 | 29.80409 | -96.51447 | 30432 ft | 363 kts | 275° |
| 2026-04-22 10:11 | 29.80630 | -96.54342 | 30067 ft | 361 kts | 275° |
| 2026-04-22 10:11 | 29.80845 | -96.57213 | 29703 ft | 359 kts | 275° |
| 2026-04-22 10:11 | 29.81056 | -96.60080 | 29339 ft | 358 kts | 275° |
| 2026-04-22 10:11 | 29.81265 | -96.62930 | 28975 ft | 356 kts | 275° |
| 2026-04-22 10:12 | 29.81472 | -96.65769 | 28611 ft | 354 kts | 275° |
| 2026-04-22 10:12 | 29.81677 | -96.68593 | 28246 ft | 353 kts | 275° |
| 2026-04-22 10:12 | 29.81881 | -96.71405 | 27882 ft | 351 kts | 275° |
| 2026-04-22 10:12 | 29.82081 | -96.74165 | 27523 ft | 349 kts | 275° |
| 2026-04-22 10:13 | 29.82106 | -96.74499 | 27480 ft | 349 kts | 275° |
| 2026-04-22 10:13 | 29.82271 | -96.76795 | 27179 ft | 348 kts | 275° |
| 2026-04-22 10:13 | 29.82469 | -96.79530 | 26820 ft | 346 kts | 275° |
| 2026-04-22 10:13 | 29.82668 | -96.82292 | 26455 ft | 344 kts | 275° |
| 2026-04-22 10:14 | 29.82865 | -96.85038 | 26091 ft | 343 kts | 275° |
| 2026-04-22 10:14 | 29.83061 | -96.87767 | 25727 ft | 341 kts | 275° |
| 2026-04-22 10:14 | 29.83256 | -96.90493 | 25361 ft | 339 kts | 275° |
| 2026-04-22 10:14 | 29.83449 | -96.93198 | 24997 ft | 338 kts | 275° |
| 2026-04-22 10:15 | 29.83641 | -96.95893 | 24634 ft | 337 kts | 275° |
| 2026-04-22 10:15 | 29.83828 | -96.98537 | 24275 ft | 335 kts | 275° |
| 2026-04-22 10:15 | 29.84018 | -97.01209 | 23911 ft | 334 kts | 275° |
| 2026-04-22 10:15 | 29.84205 | -97.03869 | 23548 ft | 332 kts | 275° |
| 2026-04-22 10:16 | 29.84392 | -97.06526 | 23183 ft | 330 kts | 275° |
| 2026-04-22 10:16 | 29.84576 | -97.09133 | 22823 ft | 328 kts | 275° |
| 2026-04-22 10:16 | 29.84760 | -97.11747 | 22459 ft | 327 kts | 275° |
| 2026-04-22 10:16 | 29.84944 | -97.14350 | 22095 ft | 325 kts | 275° |
| 2026-04-22 10:17 | 29.85126 | -97.16940 | 21731 ft | 323 kts | 275° |
| 2026-04-22 10:17 | 29.85306 | -97.19520 | 21367 ft | 322 kts | 275° |
| 2026-04-22 10:17 | 29.85486 | -97.22092 | 21002 ft | 320 kts | 275° |
| 2026-04-22 10:17 | 29.85663 | -97.24637 | 20639 ft | 318 kts | 275° |
| 2026-04-22 10:18 | 29.85839 | -97.27175 | 20276 ft | 317 kts | 275° |
| 2026-04-22 10:18 | 29.86012 | -97.29666 | 19916 ft | 315 kts | 275° |
| 2026-04-22 10:18 | 29.86185 | -97.32176 | 19552 ft | 313 kts | 275° |
| 2026-04-22 10:18 | 29.86357 | -97.34680 | 19188 ft | 312 kts | 275° |
| 2026-04-22 10:19 | 29.86528 | -97.37166 | 18824 ft | 310 kts | 275° |
| 2026-04-22 10:19 | 29.86697 | -97.39643 | 18460 ft | 308 kts | 275° |
| 2026-04-22 10:19 | 29.86863 | -97.42072 | 18100 ft | 306 kts | 275° |
| 2026-04-22 10:19 | 29.87029 | -97.44520 | 17735 ft | 305 kts | 275° |
| 2026-04-22 10:20 | 29.87195 | -97.46960 | 17369 ft | 303 kts | 275° |
| 2026-04-22 10:20 | 29.87356 | -97.49349 | 17008 ft | 301 kts | 275° |
| 2026-04-22 10:20 | 29.87518 | -97.51757 | 16644 ft | 300 kts | 275° |
| 2026-04-22 10:20 | 29.87679 | -97.54155 | 16280 ft | 299 kts | 275° |
| 2026-04-22 10:21 | 29.87839 | -97.56540 | 15916 ft | 297 kts | 275° |
| 2026-04-22 10:21 | 29.87995 | -97.58887 | 15556 ft | 296 kts | 275° |
| 2026-04-22 10:21 | 29.88152 | -97.61248 | 15192 ft | 294 kts | 275° |
| 2026-04-22 10:21 | 29.88307 | -97.63589 | 14829 ft | 290 kts | 275° |
| 2026-04-22 10:22 | 29.88458 | -97.65877 | 14463 ft | 282 kts | 275° |
| 2026-04-22 10:22 | 29.88605 | -97.68122 | 14098 ft | 279 kts | 275° |
| 2026-04-22 10:22 | 29.88752 | -97.70350 | 13733 ft | 277 kts | 275° |
| 2026-04-22 10:22 | 29.88897 | -97.72561 | 13371 ft | 276 kts | 275° |
| 2026-04-22 10:23 | 29.89039 | -97.74733 | 13010 ft | 274 kts | 275° |
| 2026-04-22 10:23 | 29.89182 | -97.76926 | 12645 ft | 273 kts | 275° |
| 2026-04-22 10:23 | 29.89323 | -97.79082 | 12284 ft | 271 kts | 275° |
| 2026-04-22 10:23 | 29.89464 | -97.81250 | 11919 ft | 269 kts | 276° |
| 2026-04-22 10:24 | 29.89559 | -97.83407 | 11551 ft | 269 kts | 271° |
| 2026-04-22 10:24 | 29.89448 | -97.85560 | 11189 ft | 269 kts | 265° |
| 2026-04-22 10:24 | 29.89132 | -97.87685 | 10828 ft | 269 kts | 259° |
| 2026-04-22 10:24 | 29.88657 | -97.89743 | 10476 ft | 269 kts | 253° |
| 2026-04-22 10:25 | 29.88055 | -97.91785 | 10117 ft | 269 kts | 250° |
| 2026-04-22 10:25 | 29.87391 | -97.93804 | 9755 ft | 268 kts | 248° |
| 2026-04-22 10:25 | 29.86703 | -97.95798 | 9390 ft | 268 kts | 247° |
| 2026-04-22 10:25 | 29.86006 | -97.97790 | 9028 ft | 267 kts | 246° |
| 2026-04-22 10:26 | 29.85317 | -97.99756 | 8666 ft | 266 kts | 246° |
| 2026-04-22 10:26 | 29.84635 | -98.01733 | 8304 ft | 265 kts | 246° |
| 2026-04-22 10:26 | 29.83965 | -98.03711 | 7942 ft | 264 kts | 246° |
| 2026-04-22 10:26 | 29.83304 | -98.05682 | 7575 ft | 263 kts | 246° |
| 2026-04-22 10:27 | 29.82650 | -98.07645 | 7213 ft | 261 kts | 246° |
| 2026-04-22 10:27 | 29.81999 | -98.09604 | 6851 ft | 260 kts | 246° |
| 2026-04-22 10:27 | 29.81366 | -98.11511 | 6690 ft | 254 kts | 246° |
| 2026-04-22 10:27 | 29.80731 | -98.13424 | 6609 ft | 254 kts | 246° |
| 2026-04-22 10:28 | 29.80107 | -98.15299 | 6597 ft | 253 kts | 246° |
| 2026-04-22 10:28 | 29.79474 | -98.17198 | 6580 ft | 254 kts | 246° |
| 2026-04-22 10:28 | 29.79014 | -98.18580 | 6510 ft | 255 kts | 246° |
| 2026-04-22 10:28 | 29.78418 | -98.20441 | 6510 ft | 254 kts | 247° |
| 2026-04-22 10:29 | 29.77846 | -98.22368 | 6511 ft | 255 kts | 249° |
| 2026-04-22 10:29 | 29.77317 | -98.24328 | 6493 ft | 255 kts | 250° |
| 2026-04-22 10:29 | 29.76815 | -98.26270 | 6503 ft | 256 kts | 250° |
| 2026-04-22 10:29 | 29.76314 | -98.28239 | 6502 ft | 255 kts | 251° |
| 2026-04-22 10:30 | 29.75816 | -98.30204 | 6501 ft | 256 kts | 251° |
| 2026-04-22 10:30 | 29.75325 | -98.32153 | 6508 ft | 256 kts | 251° |
| 2026-04-22 10:30 | 29.74830 | -98.34122 | 6500 ft | 255 kts | 251° |
| 2026-04-22 10:30 | 29.74336 | -98.36090 | 6498 ft | 256 kts | 251° |
| 2026-04-22 10:31 | 29.73842 | -98.38059 | 6510 ft | 255 kts | 251° |
| 2026-04-22 10:31 | 29.73348 | -98.40039 | 6502 ft | 256 kts | 251° |
| 2026-04-22 10:31 | 29.72945 | -98.42031 | 6254 ft | 262 kts | 256° |
| 2026-04-22 10:31 | 29.72728 | -98.44119 | 5921 ft | 262 kts | 262° |
| 2026-04-22 10:32 | 29.72653 | -98.46225 | 5591 ft | 261 kts | 265° |
| 2026-04-22 10:32 | 29.72633 | -98.48291 | 5251 ft | 260 kts | 266° |
| 2026-04-22 10:32 | 29.72635 | -98.50370 | 4912 ft | 259 kts | 266° |
| 2026-04-22 10:32 | 29.72644 | -98.52444 | 4637 ft | 256 kts | 267° |
| 2026-04-22 10:33 | 29.72657 | -98.54468 | 4553 ft | 254 kts | 267° |
| 2026-04-22 10:33 | 29.72674 | -98.56500 | 4537 ft | 250 kts | 267° |
| 2026-04-22 10:33 | 29.72771 | -98.58449 | 4540 ft | 242 kts | 271° |
| 2026-04-22 10:33 | 29.72975 | -98.60357 | 4516 ft | 237 kts | 274° |
| 2026-04-22 10:34 | 29.73212 | -98.62192 | 4510 ft | 229 kts | 275° |
| 2026-04-22 10:34 | 29.73320 | -98.63971 | 4500 ft | 220 kts | 263° |
| 2026-04-22 10:34 | 29.72902 | -98.65588 | 4539 ft | 205 kts | 241° |
| 2026-04-22 10:34 | 29.72137 | -98.66932 | 4527 ft | 198 kts | 226° |
| 2026-04-22 10:35 | 29.71056 | -98.67845 | 4527 ft | 191 kts | 203° |
| 2026-04-22 10:35 | 29.69764 | -98.68022 | 4544 ft | 189 kts | 174° |
| 2026-04-22 10:35 | 29.68565 | -98.67410 | 4541 ft | 193 kts | 147° |
| 2026-04-22 10:35 | 29.67686 | -98.66261 | 4579 ft | 194 kts | 130° |
| 2026-04-22 10:36 | 29.66929 | -98.64967 | 4553 ft | 192 kts | 127° |
| 2026-04-22 10:36 | 29.66150 | -98.63718 | 4397 ft | 192 kts | 130° |
| 2026-04-22 10:36 | 29.65301 | -98.62542 | 4120 ft | 189 kts | 134° |
| 2026-04-22 10:36 | 29.64436 | -98.61456 | 3844 ft | 178 kts | 136° |
| 2026-04-22 10:37 | 29.63609 | -98.60448 | 3558 ft | 173 kts | 136° |
| 2026-04-22 10:37 | 29.62034 | -98.58482 | 3107 ft | 163 kts | 135° |
| 2026-04-22 10:37 | 29.61290 | -98.57534 | 2956 ft | 153 kts | 134° |
| 2026-04-22 10:38 | 29.60581 | -98.56627 | 2745 ft | 153 kts | 134° |
| 2026-04-22 10:38 | 29.59875 | -98.55731 | 2514 ft | 153 kts | 134° |
| 2026-04-22 10:38 | 29.59142 | -98.54820 | 2272 ft | 157 kts | 133° |
| 2026-04-22 10:38 | 29.58392 | -98.53894 | 2076 ft | 159 kts | 132° |
| 2026-04-22 10:39 | 29.57651 | -98.52937 | 1857 ft | 160 kts | 131° |
| 2026-04-22 10:39 | 29.56913 | -98.51973 | 1647 ft | 160 kts | 131° |
| 2026-04-22 10:39 | 29.56184 | -98.51028 | 1441 ft | 160 kts | 131° |
| 2026-04-22 10:39 | 29.55445 | -98.50075 | 1222 ft | 159 kts | 131° |
| 2026-04-22 10:40 | 29.54708 | -98.49122 | 1003 ft | 159 kts | 131° |
| 2026-04-22 10:40 | 29.54014 | -98.48215 | 828 ft | 133 kts | 131° |
| 2026-04-22 10:40 | 29.53513 | -98.47557 | 821 ft | 76 kts | 132° |
| 2026-04-22 10:40 | 29.53326 | -98.47324 | 821 ft | 27 kts | 134° |
| 2026-04-22 10:41 | 29.53203 | -98.47266 | 821 ft | 16 kts | 171° |
| 2026-04-22 10:41 | 29.53119 | -98.47258 | 821 ft | 10 kts | 197° |
| 2026-04-22 10:41 | 29.53069 | -98.47311 | 821 ft | 10 kts | 198° |
| 2026-04-22 10:41 | 29.53009 | -98.47338 | 821 ft | 6 kts | 215° |
| 2026-04-22 10:42 | 29.52997 | -98.47353 | 821 ft | 0 kts | 230° |